Terminal Aerodrome Forecast
Issued by NWS

Home | Current Version | Previous Version | Text Only | Print | Product List | Glossary On
Versions: 1 2 3 4 5 6 7 8 9 10 11 12 13 14 15 16
778
FTUS43 KDLH 181204 AAA
TAFBRD
TAF AMD
KBRD 181204Z 1812/1912 24009KT P6SM SKC WS020/29040KT
     FM181500 26008KT P6SM SCT025=

USA.gov is the U.S. government's official web portal to all federal, state and local government web resources and services.